Latest Coastal Weather Observations for Bairnsdale

IDV60701

Issued at 12:15 am EST Tuesday 23 September 2014 (issued every 10 minutes, with the page automatically refreshed every 10 minutes)

About coastal observations | Map of coastal stations | Coastal observations for VIC | Marine services | Other Formats
Station Details ID: 085279 Name: BAIRNSDALE AIRPORT Lat: -37.88 Lon: 147.57 Height: 49.4 m
Data from the previous 72 hours. | See also: Recent months at Bairnsdale
Date/Time
EST
Temp

°C
Wind Pressure Rain
since 9am
mm
Weather Cloud Vis
km
Sea
Height
m
Swell
Dir
 
Speed
knots
Gust
knots
hPa Trend Height
m
Period
s
Dir
23/12:00am 5.9 NW 4 5 1027.9 - 0.0 - - 4 - - - -
 
Date/Time
EST
Temp

°C
Wind Pressure Rain
since 9am
mm
Weather Cloud Vis
km
Sea
Height
m
Swell
Dir
 
Speed
knots
Gust
knots
hPa Trend Height
m
Period
s
Dir
22/11:58pm 5.9 NW 4 5 1027.9 - 0.0 - - 5 - - - -
22/11:30pm 6.8 NW 6 7 1028.0 - 0.0 - - 10 - - - -
22/11:00pm 7.8 NW 7 8 1028.2 - 0.0 - - 10 - - - -
22/10:59pm 7.7 NW 6 8 1028.2 - 0.0 - - 10 - - - -
22/10:30pm 6.9 NW 4 5 1028.3 - 0.0 - Partly cloudy 0.2 - - - -
22/10:00pm 6.3 W 2 3 1028.4 - 0.0 - - 0.1 - - - -
22/09:30pm 6.5 W 3 3 1028.3 - 0.0 - - 2 - - - -
22/09:20pm 6.3 W 3 4 1028.4 - 0.0 - - 0.6 - - - -
22/09:00pm 6.9 W 2 3 1028.3 - 0.0 - - 0.2 - - - -
22/08:30pm 8.1 WSW 3 3 1028.3 - 0.0 - - 0.5 - - - -
22/08:00pm 8.2 WSW 3 4 1028.2 - 0.0 - - 0.2 - - - -
22/07:39pm 8.1 WSW 4 5 1028.1 - 0.0 - - 5 - - - -
22/07:36pm 8.1 WSW 4 5 1028.1 - 0.0 - - 6 - - - -
22/07:30pm 8.0 SW 4 5 1028.1 - 0.0 - - 10 - - - -
22/07:00pm 9.7 SSE 3 3 1027.9 - 0.0 - - 3 - - - -
22/06:56pm 9.8 SSE 3 4 1027.8 - 0.0 - - 3 - - - -
22/06:30pm 12.7 SE 4 4 1027.5 - 0.0 - - 10 - - - -
22/06:00pm 13.5 ESE 5 6 1027.2 - 0.0 - - 10 - - - -
22/05:30pm 14.7 ESE 6 8 1027.1 - 0.0 - - 10 - - - -
22/05:00pm 15.9 ESE 7 9 1026.9 - 0.0 - - 10 - - - -
22/04:30pm 16.5 SE 7 9 1026.8 - 0.0 - - 10 - - - -
22/04:00pm 17.1 ESE 8 11 1026.6 - 0.0 - - 10 - - - -
22/03:30pm 17.5 SE 9 11 1026.6 - 0.0 - - 10 - - - -
22/03:00pm 17.9 SE 9 11 1026.7 - 0.0 - - 10 - - - -
22/02:30pm 18.7 SE 8 10 1026.8 - 0.0 - - 10 - - - -
22/02:00pm 18.9 SE 7 9 1027.0 - 0.0 - - 10 - - - -
22/01:30pm 18.8 SE 6 7 1027.2 - 0.0 - - 10 - - - -
22/01:00pm 18.9 ESE 7 9 1027.5 - 0.0 - - 10 - - - -
22/12:30pm 18.3 SE 5 7 1027.8 - 0.0 - - 10 - - - -
22/12:00pm 17.5 ENE 3 5 1028.2 - 0.0 - - 10 - - - -
22/11:30am 17.1 ESE 4 6 1028.7 - 0.0 - - 10 - - - -
22/11:00am 15.5 NE 5 6 1029.1 - 0.0 - - 10 - - - -
22/10:30am 15.0 NE 4 6 1029.5 - 0.0 - - 10 - - - -
22/10:00am 14.2 ENE 4 9 1029.9 - 0.0 - - 10 - - - -
22/09:30am 12.7 E 4 5 1030.1 - 0.0 - - 10 - - - -
22/09:00am 11.1 E 3 4 1030.4 - 0.0 - - 10 - - - -
22/08:30am 9.6 CALM 0 0 1030.5 - 0.0 - - 10 - - - -
22/08:00am 8.0 WNW 2 4 1030.5 - 0.0 - - 10 - - - -
22/07:30am 6.5 NNW 4 5 1030.4 - 0.0 - - 10 - - - -
22/07:11am 5.5 NW 5 6 1030.2 - 0.0 - - 10 - - - -
22/07:00am 4.7 NW 6 7 1030.2 - 0.0 - - 4 - - - -
22/06:38am 2.0 NW 5 6 1030.2 - 0.0 - Partly cloudy 0.3 - - - -
22/06:30am 1.8 NW 4 4 1030.1 - 0.0 - Partly cloudy 0.3 - - - -
22/06:00am 2.0 N 4 5 1030.0 - 0.0 - Partly cloudy 0.3 - - - -
22/05:58am 2.2 N 4 5 1030.0 - 0.0 - Partly cloudy 0.3 - - - -
22/05:30am 2.7 NNW 3 4 1029.8 - 0.0 - - 0.6 - - - -
22/05:00am 2.9 NNW 3 5 1029.8 - 0.0 - - 0.7 - - - -
22/04:30am 4.3 NNW 4 5 1029.7 - 0.0 - - 2 - - - -
22/04:00am 3.7 N 4 5 1029.5 - 0.0 - - 2 - - - -
22/03:30am 3.3 N 3 4 1029.2 - 0.0 - - 0.2 - - - -
22/03:00am 4.3 NNW 3 4 1029.5 - 0.0 - - 7 - - - -
22/02:34am 4.4 NNW 4 4 1029.8 - 0.0 - - 5 - - - -
22/02:30am 4.8 NNW 4 5 1029.8 - 0.0 - - 10 - - - -
22/02:08am 4.0 NW 5 6 1029.9 - 0.0 - - 9 - - - -
22/02:00am 4.5 NW 5 6 1030.0 - 0.0 - - 7 - - - -
22/01:30am 4.2 NW 4 5 1030.3 - 0.0 - - 2 - - - -
22/01:27am 4.4 NNW 5 5 1030.3 - 0.0 - - 4 - - - -
22/01:00am 5.0 NNW 5 6 1030.5 - 0.0 - - 10 - - - -
22/12:54am 5.0 NNW 5 6 1030.5 - 0.0 - - 10 - - - -
22/12:30am 4.7 NNW 5 6 1030.4 - 0.0 - - 3 - - - -
22/12:00am 5.3 NNW 5 5 1030.3 - 0.0 - - 4 - - - -
 
Date/Time
EST
Temp

°C
Wind Pressure Rain
since 9am
mm
Weather Cloud Vis
km
Sea
Height
m
Swell
Dir
 
Speed
knots
Gust
knots
hPa Trend Height
m
Period
s
Dir
21/11:50pm 5.2 NNW 5 5 1030.4 - 0.0 - - 5 - - - -
21/11:30pm 5.2 NW 5 5 1030.4 - 0.0 - - 10 - - - -
21/11:00pm 5.7 NW 4 5 1030.5 - 0.0 - - 10 - - - -
21/10:39pm 5.6 NW 4 5 1030.7 - 0.0 - - 9 - - - -
21/10:30pm 5.9 N 2 5 1030.7 - 0.0 - - 8 - - - -
21/10:08pm 6.2 N 2 3 1030.8 - 0.0 - - 3 - - - -
21/10:00pm 6.6 N 3 4 1030.8 - 0.0 - - 10 - - - -
21/09:30pm 6.9 N 3 4 1031.0 - 0.0 - - 10 - - - -
21/09:00pm 7.9 N 3 3 1030.9 - 0.0 - - 10 - - - -
21/08:30pm 8.4 N 5 5 1031.0 - 0.0 - - 10 - - - -
21/08:00pm 8.1 NNE 4 4 1031.0 - 0.0 - - - - - - -
21/07:30pm 7.9 NNE 3 4 1030.9 - 0.0 - - 10 - - - -
21/07:00pm 8.6 NE 3 4 1030.6 - 0.0 - - 10 - - - -
21/06:30pm 10.8 SSE 4 5 1030.2 - 0.0 - - 10 - - - -
21/06:00pm 11.9 SSE 7 8 1029.8 - 0.0 - - 10 - - - -
21/05:30pm 13.0 SSE 7 9 1029.6 - 0.0 - - 10 - - - -
21/05:00pm 14.1 SSE 9 13 1029.5 - 0.0 - - 10 - - - -
21/04:30pm 15.1 SSE 10 12 1029.2 - 0.0 - - 10 - - - -
21/04:00pm 16.0 SSW 9 12 1029.0 - 0.0 - - 10 - - - -
21/03:30pm 15.9 SSW 9 13 1029.0 - 0.0 - - 10 - - - -
21/03:00pm 16.2 SW 7 13 1029.0 - 0.0 - - 10 - - - -
21/02:30pm 15.7 WSW 7 10 1029.3 - 0.0 - - 10 - - - -
21/02:00pm 16.0 SW 9 13 1029.5 - 0.0 - - 10 - - - -
21/01:30pm 16.3 W 6 11 1029.8 - 0.0 - - 10 - - - -
21/01:00pm 15.2 SW 7 13 1030.1 - 0.0 - - 10 - - - -
21/12:30pm 14.7 WSW 8 13 1030.4 - 0.0 - Partly cloudy 10 - - - -
21/12:00pm 15.1 WSW 7 11 1030.9 - 0.0 - Partly cloudy 10 - - - -
21/11:30am 13.9 WSW 9 12 1031.3 - 0.0 - Cloudy 10 - - - -
21/11:00am 13.5 W 8 11 1031.5 - 0.0 - Cloudy 10 - - - -
21/10:30am 12.9 W 9 11 1031.7 - 0.0 - Cloudy 10 - - - -
21/10:00am 12.7 W 8 12 1031.8 - 0.0 - Cloudy 10 - - - -
21/09:30am 12.5 W 8 10 1031.9 - 0.0 - Cloudy 10 - - - -
21/09:00am 12.1 W 8 11 1031.8 - 0.0 - Cloudy 10 - - - -
21/08:30am 11.4 W 8 11 1031.7 - 0.0 - Cloudy 10 - - - -
21/08:00am 10.9 WNW 7 9 1031.6 - 0.0 - Cloudy 10 - - - -
21/07:30am 10.1 WNW 6 8 1031.3 - 0.0 - Cloudy 10 - - - -
21/07:00am 8.5 NW 4 5 1031.0 - 0.0 - Cloudy 10 - - - -
21/06:30am 8.2 NW 6 8 1030.7 - 0.0 - Cloudy 10 - - - -
21/06:00am 8.2 WNW 8 9 1030.6 - 0.0 - Cloudy 10 - - - -
21/05:30am 7.2 WNW 8 10 1030.3 - 0.0 - Partly cloudy 10 - - - -
21/05:00am 6.9 W 9 11 1030.0 - 0.0 - Partly cloudy 10 - - - -
21/04:30am 7.0 W 10 12 1029.8 - 0.0 - Partly cloudy 10 - - - -
21/04:00am 7.0 W 9 12 1029.4 - 0.0 - Partly cloudy 10 - - - -
21/03:30am 6.8 W 7 8 1029.3 - 0.0 - Partly cloudy 10 - - - -
21/03:00am 6.6 W 6 8 1029.1 - 0.0 - Mostly clear 10 - - - -
21/02:30am 7.1 W 8 9 1029.3 - 0.0 - - 10 - - - -
21/02:00am 6.8 W 8 9 1029.3 - 0.0 - - 10 - - - -
21/01:30am 6.4 WNW 6 8 1029.6 - 0.0 - - 10 - - - -
21/01:00am 7.5 WNW 7 9 1029.8 - 0.0 - - 10 - - - -
21/12:30am 7.5 WNW 7 8 1029.7 - 0.0 - Partly cloudy 10 - - - -
21/12:00am 8.4 WNW 7 9 1029.7 - 0.0 - Partly cloudy 10 - - - -
 
Date/Time
EST
Temp

°C
Wind Pressure Rain
since 9am
mm
Weather Cloud Vis
km
Sea
Height
m
Swell
Dir
 
Speed
knots
Gust
knots
hPa Trend Height
m
Period
s
Dir
20/11:30pm 9.0 WNW 7 9 1029.8 - 0.0 - Cloudy 10 - - - -
20/11:00pm 9.0 WNW 7 9 1029.9 - 0.0 - Partly cloudy 10 - - - -
20/10:30pm 9.6 W 6 9 1029.9 - 0.0 - Cloudy 10 - - - -
20/10:00pm 9.3 WSW 6 8 1029.7 - 0.0 - Cloudy 10 - - - -
20/09:30pm 9.6 WSW 7 10 1029.8 - 0.0 - Cloudy 10 - - - -
20/09:00pm 9.8 WSW 6 7 1029.9 - 0.0 - Mostly cloudy 10 - - - -
20/08:30pm 9.1 WSW 5 7 1029.7 - 0.0 - Partly cloudy 10 - - - -
20/08:00pm 10.0 SW 3 4 1029.5 - 0.0 - Partly cloudy 10 - - - -
20/07:30pm 10.1 SSW 2 3 1029.1 - 0.0 - Partly cloudy 10 - - - -
20/07:00pm 9.4 SSW 4 5 1028.8 - 0.0 - Partly cloudy 10 - - - -
20/06:30pm 11.2 S 5 7 1028.2 - 0.0 - Partly cloudy 10 - - - -
20/06:00pm 11.7 S 8 10 1028.0 - 0.0 - Cloudy 10 - - - -
20/05:30pm 12.3 S 9 11 1027.6 - 0.0 - Partly cloudy 10 - - - -
20/05:00pm 13.1 S 9 11 1027.1 - 0.0 - Partly cloudy 10 - - - -
20/04:30pm 13.8 S 10 15 1026.8 - 0.0 - Partly cloudy 10 - - - -
20/04:00pm 14.0 S 11 13 1026.4 - 0.0 - Partly cloudy 10 - - - -
20/03:30pm 14.1 S 12 15 1026.2 - 0.0 - Partly cloudy 10 - - - -
20/03:00pm 14.8 S 10 12 1026.0 - 0.0 - Mostly cloudy 10 - - - -
20/02:30pm 14.0 S 8 10 1025.8 - 0.0 - Partly cloudy 10 - - - -
20/02:00pm 14.5 S 8 13 1025.8 - 0.0 - Partly cloudy 10 - - - -
20/01:30pm 14.3 S 10 13 1025.8 - 0.0 - Partly cloudy 10 - - - -
20/01:00pm 15.0 SW 7 9 1025.8 - 0.0 - Partly cloudy 10 - - - -
20/12:30pm 14.8 SW 7 10 1026.2 - 0.0 - Partly cloudy 10 - - - -
20/12:00pm 14.7 WSW 7 10 1026.4 - 0.0 - Cloudy 10 - - - -
20/11:30am 14.0 W 9 12 1026.6 - 0.0 - Partly cloudy 10 - - - -
20/11:00am 14.5 WSW 9 13 1026.8 - 0.0 - Partly cloudy 10 - - - -
20/10:30am 13.5 WSW 10 16 1027.0 - 0.0 - Partly cloudy 10 - - - -
20/10:00am 13.3 WSW 10 16 1027.0 - 0.0 - Partly cloudy 10 - - - -
20/09:30am 14.2 W 9 15 1027.1 - 0.0 - Partly cloudy 10 - - - -
20/09:00am 13.0 W 10 14 1027.0 - 0.0 - Cloudy 10 - - - -
20/08:30am 12.5 W 10 13 1026.8 - 0.0 - Partly cloudy 10 - - - -
20/08:00am 11.2 W 12 15 1026.5 - 0.0 - Partly cloudy 10 - - - -
20/07:30am 9.1 WNW 7 9 1026.4 - 0.0 - Partly cloudy 10 - - - -
20/07:00am 8.6 NW 7 8 1026.1 - 0.0 - Partly cloudy 10 - - - -
20/06:30am 7.2 WNW 8 9 1025.9 - 0.0 - Partly cloudy 10 - - - -
20/06:00am 6.7 WNW 7 9 1025.3 - 0.0 - - 10 - - - -
20/05:30am 7.0 WNW 8 10 1024.8 - 0.0 - - 10 - - - -
20/05:00am 7.4 WNW 8 10 1024.5 - 0.0 - Partly cloudy 10 - - - -
20/04:30am 8.2 WNW 7 9 1024.4 - 0.0 - Cloudy 10 - - - -
20/04:00am 8.2 NW 6 9 1024.2 - 0.0 - Cloudy 10 - - - -
20/03:30am 8.8 WNW 7 11 1024.2 - 0.0 - Cloudy 10 - - - -
20/03:00am 8.8 WNW 9 12 1023.9 - 0.0 - Mostly cloudy 10 - - - -
20/02:30am 8.7 W 8 10 1023.9 - 0.0 - Partly cloudy 10 - - - -
20/02:00am 8.5 W 9 13 1023.9 - 0.0 - - 10 - - - -
20/01:30am 9.2 W 9 13 1024.1 - 0.0 - Partly cloudy 10 - - - -
20/01:00am 10.0 W 12 16 1024.2 - 0.0 - Cloudy 10 - - - -
20/12:30am 9.7 W 11 15 1024.0 - 0.0 - Partly cloudy 10 - - - -

Other Formats:

Comma delimited format used in spreadsheet applications
http://www.bom.gov.au/fwo/IDV60701/IDV60701.94912.axf

JavaScript Object Notation format (JSON) in row-major order
http://www.bom.gov.au/fwo/IDV60701/IDV60701.94912.json